Terminal Aerodrome Forecast
Issued by NWS St Louis, MO

Home | Current Version | Previous Version | Text Only | Print | Product List | Glossary On
Versions: 1 2 3 4 5 6 7 8 9 10 11 12 13 14 15 16 17 18 19 20 21 22 23 24 25 26 27 28 29 30 31 32
314
FTUS43 KLSX 291123
TAFSTL
TAF
KSTL 291123Z 2912/3018 26007KT P6SM FEW250
     FM291800 27008G18KT P6SM FEW080
     FM300100 30006KT P6SM FEW080=

USA.gov is the U.S. government's official web portal to all federal, state and local government web resources and services.